Brookline, MA (02445)

7:13 PM EDT on August 29, 2016 (GMT -0400)
Fisher Hill | | Change Station

Elev 177 ft 42.33 °N, 71.14 °W | Updated 2 seconds ago

Partly Cloudy
Partly Cloudy
77.0 °F
Feels Like 78 °F
N
1.0
Wind Variable Wind from SSW
Gusts 5.0 mph

Today
High -- | Low -- °F
--% Chance of Precip.
Yesterday
High -- | Low -- °F
Precip. -- in
Pressure 30.07 in
Visibility 10.0 miles
Clouds Few 6500 ft
Few 25000 ft
Heat Index 78 °F
Dew Point 53 °F
Humidity 44%
Rainfall 0.00 in
Snow Depth Not available.
6:07 AM 7:22 PM
Waning Crescent, 6% visible
METAR KBOS 292254Z 33014G20KT 10SM FEW065 FEW250 27/11 A3007 RMK AO2 SLP182 T02670111
Pressure 30.07 in
Visibility 10.0 miles
Clouds Few 6500 ft
Few 25000 ft
Heat Index 78 °F
Dew Point 53 °F
Humidity 44%
Rainfall 0.00 in
Snow Depth Not available.
6:07 AM 7:22 PM
Waning Crescent, 6% visible
METAR KBOS 292254Z 33014G20KT 10SM FEW065 FEW250 27/11 A3007 RMK AO2 SLP182 T02670111

10-Day Weather Forecast

Almanac

Astronomy

Aug. 29, 2016 Rise Set
Actual Time
Civil Twilight
Nautical Twilight
Astronomical Twilight
Moon
Length of Visible Light
Length of Day
Tomorrow will be .
, % of the Moon is Illuminated

Today's Extremes

State Highs State Lows

Community

WunderPhotos

Upload Photos

1,935,692 photos uploaded!

WunderBlog® & News

Nearby

Air Quality

  Air Quality AQ Index Pollutant
Not available.

Snow Depth

Station Depth Elevation

Earthquake Activity

City Distance Mag. Time & Date
Minimum magnitude displayed is 2.5.

Coastal Water Temperatures

Place Temperature

Stations

Nearby Weather Stations

Station Location Temp. Windchill Dew Point Humidity Wind Precip. Elev Updated Type
                   

Watches & Warnings

There are currently no watches in effect.